createdAt,value
2023-04-09T00:00:06.439Z,17.50
2023-04-09T00:03:15.825Z,16.90
2023-04-09T00:06:19.314Z,16.80
2023-04-09T00:09:22.696Z,17.60
2023-04-09T00:12:26.101Z,16.98
2023-04-09T00:15:32.115Z,16.67
2023-04-09T00:18:36.177Z,16.35
2023-04-09T00:21:40.783Z,16.92
2023-04-09T00:24:44.150Z,16.85
2023-04-09T00:27:47.598Z,15.80
2023-04-09T00:30:52.335Z,17.13
2023-04-09T00:33:56.077Z,17.13
2023-04-09T00:37:00.486Z,16.60
2023-04-09T00:40:03.838Z,17.33
2023-04-09T00:43:07.333Z,15.13
2023-04-09T00:46:11.972Z,15.73
2023-04-09T00:49:15.644Z,16.80
2023-04-09T00:52:19.549Z,17.90
2023-04-09T00:55:23.079Z,17.92
2023-04-09T00:58:27.061Z,18.20
2023-04-09T01:01:33.323Z,18.05
2023-04-09T01:04:36.951Z,16.95
2023-04-09T01:07:44.577Z,17.25
2023-04-09T01:10:49.710Z,16.02
2023-04-09T01:13:57.227Z,15.95
2023-04-09T01:17:05.052Z,16.45
2023-04-09T01:20:11.623Z,15.80
2023-04-09T01:23:19.660Z,16.23
2023-04-09T01:26:29.432Z,15.10
2023-04-09T01:29:36.333Z,15.38
2023-04-09T01:32:40.372Z,15.90
2023-04-09T01:35:44.750Z,14.75
2023-04-09T01:38:53.178Z,15.32
2023-04-09T01:41:57.872Z,15.73
2023-04-09T01:45:03.353Z,13.93
2023-04-09T01:48:07.343Z,14.38
2023-04-09T01:51:13.978Z,14.55
2023-04-09T01:54:17.786Z,15.70
2023-04-09T01:57:21.117Z,14.82
2023-04-09T02:00:26.544Z,15.18
2023-04-09T02:03:35.046Z,15.02
2023-04-09T02:06:41.358Z,14.35
2023-04-09T02:09:47.749Z,15.95
2023-04-09T02:12:52.914Z,16.17
2023-04-09T02:15:58.367Z,15.90
2023-04-09T02:19:02.105Z,16.20
2023-04-09T02:22:06.102Z,15.38
2023-04-09T02:25:10.725Z,15.93
2023-04-09T02:28:14.416Z,15.20
2023-04-09T02:31:19.161Z,14.25
2023-04-09T02:34:22.713Z,14.18
2023-04-09T02:37:26.015Z,13.60
2023-04-09T02:40:29.406Z,15.48
2023-04-09T02:43:32.874Z,15.18
2023-04-09T02:46:37.755Z,14.32
2023-04-09T02:49:41.286Z,15.18
2023-04-09T02:52:47.456Z,16.05
2023-04-09T02:55:50.783Z,13.63
2023-04-09T02:58:55.187Z,13.35
2023-04-09T03:02:00.063Z,15.02
2023-04-09T03:05:03.642Z,15.45
2023-04-09T03:08:07.453Z,14.98
2023-04-09T03:11:10.808Z,14.30
2023-04-09T03:14:14.469Z,14.40
2023-04-09T03:17:19.205Z,14.30
2023-04-09T03:20:23.031Z,16.67
2023-04-09T03:23:26.375Z,14.60
2023-04-09T03:26:29.746Z,15.40
2023-04-09T03:29:34.147Z,15.70
2023-04-09T03:32:39.372Z,14.55
2023-04-09T03:35:44.485Z,14.25
2023-04-09T03:38:49.543Z,15.30
2023-04-09T03:42:14.322Z,13.45
2023-04-09T03:45:22.956Z,14.10
2023-04-09T03:48:29.936Z,16.55
2023-04-09T03:51:36.445Z,14.63
2023-04-09T03:54:40.870Z,15.90
2023-04-09T03:57:49.957Z,15.43
2023-04-09T04:00:56.146Z,15.25
2023-04-09T04:04:15.458Z,13.98
2023-04-09T04:07:23.949Z,13.57
2023-04-09T04:10:33.199Z,14.38
2023-04-09T04:13:37.455Z,12.85
2023-04-09T04:16:44.028Z,13.38
2023-04-09T04:19:51.677Z,12.38
2023-04-09T04:22:55.517Z,13.88
2023-04-09T04:26:00.589Z,13.18
2023-04-09T04:29:11.520Z,12.80
2023-04-09T04:32:28.682Z,13.18
2023-04-09T04:35:35.404Z,14.07
2023-04-09T04:38:42.274Z,13.75
2023-04-09T04:41:55.623Z,12.95
2023-04-09T04:45:02.556Z,12.70
2023-04-09T04:48:17.226Z,13.52
2023-04-09T04:51:22.575Z,13.43
2023-04-09T04:54:41.084Z,13.95
2023-04-09T04:57:45.652Z,14.15
2023-04-09T05:00:49.464Z,13.82
2023-04-09T05:03:53.454Z,13.82
2023-04-09T05:07:06.655Z,14.75
2023-04-09T05:10:20.683Z,14.82
2023-04-09T05:13:24.694Z,13.15
2023-04-09T05:16:29.132Z,13.57
2023-04-09T05:19:39.427Z,13.40
2023-04-09T05:22:44.672Z,13.40
2023-04-09T05:25:50.128Z,14.23
2023-04-09T05:29:01.707Z,13.32
2023-04-09T05:32:05.579Z,14.07
2023-04-09T05:35:13.321Z,14.48
2023-04-09T05:38:21.704Z,20.13
2023-04-09T05:41:32.695Z,17.08
2023-04-09T05:44:54.762Z,14.88
2023-04-09T05:47:59.277Z,14.80
2023-04-09T05:51:03.426Z,14.73
2023-04-09T05:54:08.805Z,13.25
2023-04-09T05:57:14.343Z,12.98
2023-04-09T06:00:21.980Z,13.48
2023-04-09T06:03:26.552Z,13.75
2023-04-09T06:06:31.252Z,14.07
2023-04-09T06:09:39.052Z,13.27
2023-04-09T06:12:42.384Z,12.77
2023-04-09T06:15:46.018Z,13.73
2023-04-09T06:18:54.279Z,12.98
2023-04-09T06:21:57.502Z,13.43
2023-04-09T06:25:03.014Z,13.10
2023-04-09T06:28:06.826Z,13.05
2023-04-09T06:31:10.457Z,12.20
2023-04-09T06:34:13.924Z,12.95
2023-04-09T06:37:17.368Z,13.27
2023-04-09T06:40:23.315Z,12.13
2023-04-09T06:43:27.857Z,11.43
2023-04-09T06:46:31.335Z,12.95
2023-04-09T06:49:34.842Z,11.98
2023-04-09T06:52:38.136Z,12.65
2023-04-09T06:55:43.671Z,12.95
2023-04-09T06:58:47.104Z,12.52
2023-04-09T07:01:53.301Z,13.00
2023-04-09T07:04:57.864Z,12.77
2023-04-09T07:08:01.619Z,10.90
2023-04-09T07:11:06.355Z,11.50
2023-04-09T07:14:09.784Z,12.70
2023-04-09T07:17:13.924Z,12.80
2023-04-09T07:20:17.258Z,12.70
2023-04-09T07:23:21.384Z,12.07
2023-04-09T07:26:26.219Z,11.52
2023-04-09T07:29:30.512Z,12.38
2023-04-09T07:32:33.829Z,11.40
2023-04-09T07:35:37.237Z,13.55
2023-04-09T07:38:41.470Z,12.18
2023-04-09T07:41:47.256Z,11.25
2023-04-09T07:44:50.798Z,11.43
2023-04-09T07:47:54.217Z,11.38
2023-04-09T07:50:57.612Z,12.20
2023-04-09T07:54:01.103Z,12.95
2023-04-09T07:57:05.895Z,11.80
2023-04-09T08:00:09.692Z,10.75
2023-04-09T08:03:20.382Z,11.63
2023-04-09T08:06:24.036Z,11.57
2023-04-09T08:09:27.386Z,10.75
2023-04-09T08:12:32.103Z,11.32
2023-04-09T08:15:35.508Z,11.30
2023-04-09T08:18:39.660Z,11.77
2023-04-09T08:21:43.655Z,11.05
2023-04-09T08:24:46.913Z,10.77
2023-04-09T08:27:52.366Z,11.60
2023-04-09T08:30:55.694Z,11.77
2023-04-09T08:33:59.195Z,11.70
2023-04-09T08:37:02.767Z,12.07
2023-04-09T08:40:06.683Z,11.77
2023-04-09T08:43:11.987Z,11.45
2023-04-09T08:46:16.576Z,10.18
2023-04-09T08:49:20.037Z,11.07
2023-04-09T08:52:32.324Z,12.18
2023-04-09T08:55:37.239Z,11.68
2023-04-09T08:58:43.417Z,11.25
2023-04-09T09:01:52.561Z,12.52
2023-04-09T09:05:00.623Z,9.90
2023-04-09T09:08:04.011Z,11.57
2023-04-09T09:11:07.483Z,11.32
2023-04-09T09:14:12.997Z,10.85
2023-04-09T09:17:16.478Z,10.18
2023-04-09T09:20:21.584Z,11.02
2023-04-09T09:23:36.521Z,10.88
2023-04-09T09:26:40.850Z,10.05
2023-04-09T09:29:46.004Z,9.88
2023-04-09T09:32:50.449Z,10.80
2023-04-09T09:35:55.125Z,10.18
2023-04-09T09:38:59.682Z,10.80
2023-04-09T09:42:09.028Z,10.63
2023-04-09T09:45:20.414Z,9.60
2023-04-09T09:48:24.100Z,11.27
2023-04-09T09:51:28.773Z,10.48
2023-04-09T09:54:36.263Z,11.07
2023-04-09T09:57:41.593Z,12.10
2023-04-09T10:00:48.354Z,11.38
2023-04-09T10:03:53.329Z,11.68
2023-04-09T10:06:58.378Z,10.88
2023-04-09T10:10:02.883Z,11.15
2023-04-09T10:13:09.884Z,10.48
2023-04-09T10:16:14.886Z,10.32
2023-04-09T10:19:18.666Z,11.35
2023-04-09T10:22:23.078Z,10.85
2023-04-09T10:25:26.943Z,10.43
2023-04-09T10:28:31.010Z,10.05
2023-04-09T10:31:48.512Z,11.35
2023-04-09T10:34:52.166Z,10.73
2023-04-09T10:37:55.548Z,10.07
2023-04-09T10:40:58.899Z,10.57
2023-04-09T10:44:07.672Z,9.68
2023-04-09T10:47:12.975Z,10.05
2023-04-09T10:50:17.752Z,9.88
2023-04-09T10:53:25.015Z,11.43
2023-04-09T10:56:28.542Z,10.27
2023-04-09T10:59:32.511Z,11.48
2023-04-09T11:02:51.052Z,10.02
2023-04-09T11:05:56.604Z,11.07
2023-04-09T11:09:03.659Z,9.90
2023-04-09T11:12:07.016Z,9.93
2023-04-09T11:15:17.386Z,10.80
2023-04-09T11:18:23.099Z,10.55
2023-04-09T11:21:29.075Z,10.70
2023-04-09T11:24:41.667Z,10.65
2023-04-09T11:27:47.366Z,11.70
2023-04-09T11:30:52.396Z,10.40
2023-04-09T11:33:57.246Z,10.68
2023-04-09T11:37:05.004Z,9.60
2023-04-09T11:40:09.033Z,11.57
2023-04-09T11:43:13.120Z,11.15
2023-04-09T11:46:16.496Z,10.52
2023-04-09T11:49:21.459Z,10.90
2023-04-09T11:52:24.904Z,10.15
2023-04-09T11:55:29.206Z,11.23
2023-04-09T11:58:32.858Z,9.43
2023-04-09T12:01:36.275Z,11.27
2023-04-09T12:04:50.615Z,10.27
2023-04-09T12:07:56.730Z,9.27
2023-04-09T12:11:09.550Z,11.90
2023-04-09T12:14:14.685Z,10.68
2023-04-09T12:17:18.134Z,11.20
2023-04-09T12:20:33.519Z,10.93
2023-04-09T12:23:37.158Z,10.02
2023-04-09T12:26:40.468Z,11.63
2023-04-09T12:29:43.828Z,11.05
2023-04-09T12:32:47.601Z,11.00
2023-04-09T12:35:52.381Z,11.40
2023-04-09T12:38:56.717Z,10.30
2023-04-09T12:42:01.077Z,10.30
2023-04-09T12:45:04.468Z,10.95
2023-04-09T12:48:07.860Z,11.07
2023-04-09T12:51:12.817Z,10.98
2023-04-09T12:54:16.175Z,11.98
2023-04-09T12:57:19.531Z,10.65
2023-04-09T13:00:22.887Z,11.38
2023-04-09T13:03:27.209Z,11.02
2023-04-09T13:06:32.605Z,10.32
2023-04-09T13:09:36.407Z,9.93
2023-04-09T13:12:39.771Z,9.55
2023-04-09T13:15:44.760Z,10.88
2023-04-09T13:18:48.156Z,9.70
2023-04-09T13:21:52.834Z,10.38
2023-04-09T13:24:56.348Z,10.57
2023-04-09T13:27:59.702Z,9.93
2023-04-09T13:31:03.215Z,10.93
2023-04-09T13:34:06.976Z,9.68
2023-04-09T13:37:11.970Z,11.07
2023-04-09T13:40:16.571Z,9.90
2023-04-09T13:43:20.993Z,10.13
2023-04-09T13:46:24.580Z,8.88
2023-04-09T13:49:28.220Z,10.00
2023-04-09T13:52:33.330Z,9.00
2023-04-09T13:55:36.777Z,9.15
2023-04-09T13:58:40.373Z,10.15
2023-04-09T14:01:46.081Z,9.40
2023-04-09T14:04:50.355Z,9.43
2023-04-09T14:07:55.241Z,7.68
2023-04-09T14:10:59.086Z,7.95
2023-04-09T14:14:02.562Z,8.38
2023-04-09T14:17:06.442Z,8.95
2023-04-09T14:20:12.037Z,8.82
2023-04-09T14:23:16.968Z,8.73
2023-04-09T14:26:22.245Z,10.10
2023-04-09T14:29:27.510Z,10.15
2023-04-09T14:32:31.087Z,8.20
2023-04-09T14:35:36.840Z,8.60
2023-04-09T14:38:41.969Z,9.13
2023-04-09T14:41:45.635Z,8.48
2023-04-09T14:44:49.144Z,7.60
2023-04-09T14:47:53.480Z,7.82
2023-04-09T14:50:58.156Z,7.47
2023-04-09T14:54:03.030Z,6.65
2023-04-09T14:57:06.897Z,9.07
2023-04-09T15:00:12.864Z,8.00
2023-04-09T15:03:16.817Z,8.02
2023-04-09T15:06:20.857Z,7.43
2023-04-09T15:09:26.207Z,7.47
2023-04-09T15:12:29.936Z,6.43
2023-04-09T15:15:33.981Z,6.75
2023-04-09T15:18:37.565Z,6.63
2023-04-09T15:21:41.223Z,6.32
2023-04-09T15:24:46.203Z,6.63
2023-04-09T15:27:49.581Z,7.63
2023-04-09T15:30:53.082Z,6.65
2023-04-09T15:33:58.328Z,6.50
2023-04-09T15:37:01.873Z,6.25
2023-04-09T15:40:07.412Z,7.07
2023-04-09T15:43:10.905Z,8.05
2023-04-09T15:46:16.286Z,8.40
2023-04-09T15:49:21.122Z,7.88
2023-04-09T15:52:24.740Z,9.02
2023-04-09T15:55:29.909Z,7.60
2023-04-09T15:58:33.370Z,8.43
2023-04-09T16:01:37.160Z,9.75
2023-04-09T16:04:40.826Z,10.65
2023-04-09T16:07:44.225Z,11.15
2023-04-09T16:10:49.252Z,9.63
2023-04-09T16:13:52.782Z,11.07
2023-04-09T16:16:56.612Z,12.05
2023-04-09T16:20:00.758Z,9.60
2023-04-09T16:23:04.372Z,10.07
2023-04-09T16:26:09.464Z,10.15
2023-04-09T16:29:13.101Z,10.40
2023-04-09T16:32:16.613Z,12.30
2023-04-09T16:35:20.638Z,12.95
2023-04-09T16:38:24.699Z,9.93
2023-04-09T16:41:29.490Z,10.00
2023-04-09T16:44:32.887Z,8.90
2023-04-09T16:47:36.370Z,10.25
2023-04-09T16:50:40.659Z,10.43
2023-04-09T16:53:44.173Z,9.00
2023-04-09T16:56:49.867Z,10.27
2023-04-09T16:59:54.155Z,9.82
2023-04-09T17:02:57.931Z,11.35
2023-04-09T17:06:01.748Z,10.00
2023-04-09T17:09:06.418Z,10.18
2023-04-09T17:12:11.773Z,9.52
2023-04-09T17:15:15.489Z,10.13
2023-04-09T17:18:19.050Z,10.15
2023-04-09T17:21:22.526Z,9.95
2023-04-09T17:24:26.255Z,10.27
2023-04-09T17:27:31.258Z,10.75
2023-04-09T17:30:34.925Z,9.45
2023-04-09T17:33:38.530Z,9.68
2023-04-09T17:36:42.422Z,10.10
2023-04-09T17:39:45.905Z,9.27
2023-04-09T17:42:50.993Z,9.50
2023-04-09T17:45:54.391Z,9.02
2023-04-09T17:48:57.922Z,7.63
2023-04-09T17:52:01.542Z,9.32
2023-04-09T17:55:06.972Z,8.10
2023-04-09T17:58:12.424Z,9.57
2023-04-09T18:01:16.033Z,8.75
2023-04-09T18:04:19.924Z,9.68
2023-04-09T18:07:24.423Z,9.57
2023-04-09T18:10:27.892Z,9.05
2023-04-09T18:13:32.916Z,8.82
2023-04-09T18:16:38.181Z,8.73
2023-04-09T18:19:41.879Z,8.68
2023-04-09T18:22:45.360Z,9.23
2023-04-09T18:25:51.187Z,8.80
2023-04-09T18:28:57.801Z,8.13
2023-04-09T18:32:03.548Z,8.98
2023-04-09T18:35:07.552Z,9.30
2023-04-09T18:38:11.158Z,9.30
2023-04-09T18:41:16.643Z,8.98
2023-04-09T18:44:21.412Z,9.00
2023-04-09T18:47:25.845Z,8.65
2023-04-09T18:50:29.298Z,9.43
2023-04-09T18:53:32.777Z,8.30
2023-04-09T18:56:36.421Z,9.15
2023-04-09T18:59:41.315Z,9.55
2023-04-09T19:02:44.911Z,9.88
2023-04-09T19:05:49.413Z,9.10
2023-04-09T19:08:57.833Z,9.45
2023-04-09T19:12:01.473Z,8.95
2023-04-09T19:15:06.728Z,8.68
2023-04-09T19:18:10.369Z,9.20
2023-04-09T19:21:13.893Z,8.85
2023-04-09T19:24:17.300Z,8.63
2023-04-09T19:27:20.880Z,10.82
2023-04-09T19:30:25.978Z,14.10
2023-04-09T19:33:29.445Z,11.38
2023-04-09T19:36:33.866Z,12.65
2023-04-09T19:39:37.476Z,9.93
2023-04-09T19:42:41.160Z,9.00
2023-04-09T19:45:46.054Z,7.80
2023-04-09T19:48:49.673Z,8.48
2023-04-09T19:51:53.017Z,8.10
2023-04-09T19:54:56.494Z,8.30
2023-04-09T19:58:00.357Z,8.50
2023-04-09T20:01:05.406Z,8.65
2023-04-09T20:04:09.756Z,7.90
2023-04-09T20:07:14.366Z,10.10
2023-04-09T20:10:17.842Z,9.38
2023-04-09T20:13:21.249Z,9.20
2023-04-09T20:16:25.954Z,9.32
2023-04-09T20:19:29.457Z,8.30
2023-04-09T20:22:32.874Z,8.70
2023-04-09T20:25:36.700Z,8.27
2023-04-09T20:28:40.214Z,7.53
2023-04-09T20:31:45.239Z,8.70
2023-04-09T20:34:49.528Z,8.35
2023-04-09T20:37:54.254Z,9.35
2023-04-09T20:40:57.857Z,8.02
2023-04-09T20:44:01.311Z,9.13
2023-04-09T20:47:07.199Z,8.20
2023-04-09T20:50:11.244Z,7.97
2023-04-09T20:53:15.157Z,9.00
2023-04-09T20:56:18.601Z,7.95
2023-04-09T20:59:21.969Z,8.40
2023-04-09T21:02:27.300Z,8.80
2023-04-09T21:05:31.098Z,8.80
2023-04-09T21:08:34.517Z,8.93
2023-04-09T21:11:38.594Z,8.50
2023-04-09T21:14:41.967Z,9.40
2023-04-09T21:17:47.633Z,9.25
2023-04-09T21:20:51.033Z,9.00
2023-04-09T21:23:54.762Z,8.82
2023-04-09T21:26:58.611Z,8.20
2023-04-09T21:30:01.933Z,8.32
2023-04-09T21:33:07.779Z,9.02
2023-04-09T21:36:11.199Z,9.43
2023-04-09T21:39:14.696Z,9.85
2023-04-09T21:42:18.006Z,9.32
2023-04-09T21:45:21.309Z,10.00
2023-04-09T21:48:26.406Z,10.27
2023-04-09T21:51:29.745Z,10.50
2023-04-09T21:54:33.127Z,10.60
2023-04-09T21:57:36.428Z,9.88
2023-04-09T22:00:39.878Z,8.85
2023-04-09T22:03:45.503Z,8.18
2023-04-09T22:06:49.032Z,9.02
2023-04-09T22:09:55.215Z,8.85
2023-04-09T22:12:58.622Z,8.48
2023-04-09T22:16:02.734Z,9.15
2023-04-09T22:19:08.115Z,9.32
2023-04-09T22:22:13.368Z,8.68
2023-04-09T22:25:17.221Z,9.45
2023-04-09T22:28:20.583Z,8.18
2023-04-09T22:31:24.063Z,8.55
2023-04-09T22:34:29.961Z,7.95
2023-04-09T22:37:33.279Z,8.05
2023-04-09T22:40:36.791Z,7.80
2023-04-09T22:43:40.315Z,7.88
2023-04-09T22:46:43.936Z,8.30
2023-04-09T22:49:48.663Z,8.85
2023-04-09T22:52:54.521Z,8.27
2023-04-09T22:55:59.999Z,7.43
2023-04-09T22:59:04.264Z,8.52
2023-04-09T23:02:08.094Z,8.48
2023-04-09T23:05:12.941Z,7.82
2023-04-09T23:08:16.406Z,8.10
2023-04-09T23:11:19.714Z,7.68
2023-04-09T23:14:23.092Z,7.85
2023-04-09T23:17:27.704Z,8.98
2023-04-09T23:20:33.807Z,8.48
2023-04-09T23:23:38.092Z,8.43
2023-04-09T23:26:41.586Z,8.20
2023-04-09T23:29:45.113Z,8.77
2023-04-09T23:32:48.668Z,8.05
2023-04-09T23:35:53.509Z,8.90
2023-04-09T23:38:56.889Z,7.72
2023-04-09T23:42:00.561Z,8.38
2023-04-09T23:45:04.766Z,8.50
2023-04-09T23:48:08.847Z,8.55
2023-04-09T23:51:18.097Z,8.43
2023-04-09T23:54:21.880Z,8.43
2023-04-09T23:57:25.238Z,8.35
